sensor_id;sensor_type;location;lat;lon;timestamp;P1;durP1;ratioP1;P2;durP2;ratioP2
45522;SDS011;31254;51.680;5.394;2022-08-03T00:00:22;9.50;;;2.17;;
45522;SDS011;31254;51.680;5.394;2022-08-03T00:02:49;13.75;;;2.55;;
45522;SDS011;31254;51.680;5.394;2022-08-03T00:05:16;7.70;;;2.10;;
45522;SDS011;31254;51.680;5.394;2022-08-03T00:07:42;10.45;;;2.22;;
45522;SDS011;31254;51.680;5.394;2022-08-03T00:10:09;11.55;;;2.80;;
45522;SDS011;31254;51.680;5.394;2022-08-03T00:12:37;10.10;;;2.88;;
45522;SDS011;31254;51.680;5.394;2022-08-03T00:15:07;10.70;;;2.40;;
45522;SDS011;31254;51.680;5.394;2022-08-03T00:17:41;7.18;;;2.80;;
45522;SDS011;31254;51.680;5.394;2022-08-03T00:20:19;7.75;;;2.53;;
45522;SDS011;31254;51.680;5.394;2022-08-03T00:22:46;10.20;;;2.60;;
45522;SDS011;31254;51.680;5.394;2022-08-03T00:25:13;9.35;;;2.53;;
45522;SDS011;31254;51.680;5.394;2022-08-03T00:27:40;10.30;;;2.88;;
45522;SDS011;31254;51.680;5.394;2022-08-03T00:30:07;10.40;;;2.58;;
45522;SDS011;31254;51.680;5.394;2022-08-03T00:32:37;8.65;;;2.72;;
45522;SDS011;31254;51.680;5.394;2022-08-03T00:35:10;9.38;;;2.67;;
45522;SDS011;31254;51.680;5.394;2022-08-03T00:37:57;13.20;;;2.70;;
45522;SDS011;31254;51.680;5.394;2022-08-03T00:40:26;12.10;;;3.25;;
45522;SDS011;31254;51.680;5.394;2022-08-03T00:42:54;9.95;;;3.30;;
45522;SDS011;31254;51.680;5.394;2022-08-03T00:45:25;12.43;;;2.97;;
45522;SDS011;31254;51.680;5.394;2022-08-03T00:48:05;11.50;;;3.00;;
45522;SDS011;31254;51.680;5.394;2022-08-03T00:50:53;9.60;;;2.80;;
45522;SDS011;31254;51.680;5.394;2022-08-03T00:53:20;9.25;;;2.90;;
45522;SDS011;31254;51.680;5.394;2022-08-03T00:55:49;10.25;;;2.85;;
45522;SDS011;31254;51.680;5.394;2022-08-03T00:58:16;10.13;;;2.63;;
45522;SDS011;31254;51.680;5.394;2022-08-03T01:00:46;8.65;;;2.95;;
45522;SDS011;31254;51.680;5.394;2022-08-03T01:03:12;11.50;;;3.47;;
45522;SDS011;31254;51.680;5.394;2022-08-03T01:05:52;12.25;;;3.55;;
45522;SDS011;31254;51.680;5.394;2022-08-03T01:11:23;7.25;;;3.05;;
45522;SDS011;31254;51.680;5.394;2022-08-03T01:14:32;12.80;;;3.28;;
45522;SDS011;31254;51.680;5.394;2022-08-03T01:17:10;13.73;;;3.33;;
45522;SDS011;31254;51.680;5.394;2022-08-03T01:19:49;9.13;;;3.42;;
45522;SDS011;31254;51.680;5.394;2022-08-03T01:31:40;11.52;;;3.83;;
45522;SDS011;31254;51.680;5.394;2022-08-03T01:34:33;9.60;;;3.13;;
45522;SDS011;31254;51.680;5.394;2022-08-03T01:37:06;12.63;;;3.60;;
45522;SDS011;31254;51.680;5.394;2022-08-03T01:39:36;15.60;;;3.42;;
45522;SDS011;31254;51.680;5.394;2022-08-03T01:42:06;10.77;;;3.00;;
45522;SDS011;31254;51.680;5.394;2022-08-03T01:44:37;11.45;;;3.70;;
45522;SDS011;31254;51.680;5.394;2022-08-03T01:47:06;10.57;;;3.70;;
45522;SDS011;31254;51.680;5.394;2022-08-03T01:49:37;12.48;;;3.65;;
45522;SDS011;31254;51.680;5.394;2022-08-03T01:52:06;8.70;;;3.67;;
45522;SDS011;31254;51.680;5.394;2022-08-03T01:54:39;9.38;;;3.42;;
45522;SDS011;31254;51.680;5.394;2022-08-03T01:57:10;12.88;;;3.75;;
45522;SDS011;31254;51.680;5.394;2022-08-03T01:59:39;8.27;;;3.85;;
45522;SDS011;31254;51.680;5.394;2022-08-03T02:02:09;9.48;;;3.47;;
45522;SDS011;31254;51.680;5.394;2022-08-03T02:05:02;10.95;;;3.85;;
45522;SDS011;31254;51.680;5.394;2022-08-03T02:07:35;11.55;;;3.42;;
45522;SDS011;31254;51.680;5.394;2022-08-03T02:10:05;10.10;;;3.45;;
45522;SDS011;31254;51.680;5.394;2022-08-03T02:12:33;9.80;;;3.95;;
45522;SDS011;31254;51.680;5.394;2022-08-03T02:15:03;11.70;;;3.80;;
45522;SDS011;31254;51.680;5.394;2022-08-03T02:17:34;9.38;;;3.15;;
45522;SDS011;31254;51.680;5.394;2022-08-03T02:20:05;10.40;;;3.50;;
45522;SDS011;31254;51.680;5.394;2022-08-03T02:22:34;9.30;;;3.58;;
45522;SDS011;31254;51.680;5.394;2022-08-03T02:25:03;10.88;;;4.00;;
45522;SDS011;31254;51.680;5.394;2022-08-03T02:27:30;14.23;;;3.75;;
45522;SDS011;31254;51.680;5.394;2022-08-03T02:30:11;8.55;;;3.47;;
45522;SDS011;31254;51.680;5.394;2022-08-03T02:32:40;10.10;;;3.42;;
45522;SDS011;31254;51.680;5.394;2022-08-03T02:35:10;12.27;;;3.60;;
45522;SDS011;31254;51.680;5.394;2022-08-03T02:37:44;9.93;;;3.35;;
45522;SDS011;31254;51.680;5.394;2022-08-03T02:40:25;9.48;;;3.55;;
45522;SDS011;31254;51.680;5.394;2022-08-03T02:43:01;18.90;;;3.63;;
45522;SDS011;31254;51.680;5.394;2022-08-03T02:45:34;13.18;;;4.03;;
45522;SDS011;31254;51.680;5.394;2022-08-03T02:48:02;10.10;;;3.60;;
45522;SDS011;31254;51.680;5.394;2022-08-03T02:50:32;14.38;;;4.03;;
45522;SDS011;31254;51.680;5.394;2022-08-03T02:53:00;13.25;;;3.60;;
45522;SDS011;31254;51.680;5.394;2022-08-03T02:55:28;13.38;;;3.72;;
45522;SDS011;31254;51.680;5.394;2022-08-03T02:57:57;9.57;;;3.55;;
45522;SDS011;31254;51.680;5.394;2022-08-03T03:00:26;15.98;;;4.68;;
45522;SDS011;31254;51.680;5.394;2022-08-03T03:02:56;10.82;;;3.53;;
45522;SDS011;31254;51.680;5.394;2022-08-03T03:05:25;8.77;;;3.63;;
45522;SDS011;31254;51.680;5.394;2022-08-03T03:08:13;9.50;;;3.38;;
45522;SDS011;31254;51.680;5.394;2022-08-03T03:10:44;12.90;;;4.15;;
45522;SDS011;31254;51.680;5.394;2022-08-03T03:13:12;11.20;;;3.80;;
45522;SDS011;31254;51.680;5.394;2022-08-03T03:15:41;10.02;;;4.13;;
45522;SDS011;31254;51.680;5.394;2022-08-03T03:18:12;8.88;;;3.83;;
45522;SDS011;31254;51.680;5.394;2022-08-03T03:20:50;9.90;;;4.22;;
45522;SDS011;31254;51.680;5.394;2022-08-03T03:23:18;14.90;;;4.10;;
45522;SDS011;31254;51.680;5.394;2022-08-03T03:25:47;12.85;;;3.78;;
45522;SDS011;31254;51.680;5.394;2022-08-03T03:28:17;12.48;;;4.03;;
45522;SDS011;31254;51.680;5.394;2022-08-03T03:30:44;13.18;;;4.22;;
45522;SDS011;31254;51.680;5.394;2022-08-03T03:33:18;14.15;;;3.65;;
45522;SDS011;31254;51.680;5.394;2022-08-03T03:35:46;8.02;;;4.13;;
45522;SDS011;31254;51.680;5.394;2022-08-03T03:38:13;7.53;;;3.85;;
45522;SDS011;31254;51.680;5.394;2022-08-03T03:40:40;8.27;;;4.10;;
45522;SDS011;31254;51.680;5.394;2022-08-03T03:43:07;8.32;;;3.60;;
45522;SDS011;31254;51.680;5.394;2022-08-03T03:45:35;12.60;;;4.15;;
45522;SDS011;31254;51.680;5.394;2022-08-03T03:48:03;14.23;;;4.13;;
45522;SDS011;31254;51.680;5.394;2022-08-03T03:50:31;15.80;;;4.18;;
45522;SDS011;31254;51.680;5.394;2022-08-03T03:52:58;8.23;;;3.72;;
45522;SDS011;31254;51.680;5.394;2022-08-03T03:55:25;9.32;;;4.00;;
45522;SDS011;31254;51.680;5.394;2022-08-03T03:57:53;14.60;;;3.92;;
45522;SDS011;31254;51.680;5.394;2022-08-03T04:00:19;10.38;;;3.90;;
45522;SDS011;31254;51.680;5.394;2022-08-03T04:02:46;11.55;;;4.10;;
45522;SDS011;31254;51.680;5.394;2022-08-03T04:05:14;6.22;;;3.38;;
45522;SDS011;31254;51.680;5.394;2022-08-03T04:08:00;10.07;;;4.22;;
45522;SDS011;31254;51.680;5.394;2022-08-03T04:11:40;13.77;;;3.88;;
45522;SDS011;31254;51.680;5.394;2022-08-03T04:13:59;10.30;;;4.00;;
45522;SDS011;31254;51.680;5.394;2022-08-03T04:16:29;12.07;;;3.90;;
45522;SDS011;31254;51.680;5.394;2022-08-03T04:19:03;12.57;;;4.43;;
45522;SDS011;31254;51.680;5.394;2022-08-03T04:21:33;10.38;;;3.72;;
45522;SDS011;31254;51.680;5.394;2022-08-03T04:24:03;11.85;;;4.10;;
45522;SDS011;31254;51.680;5.394;2022-08-03T04:26:35;12.27;;;4.38;;
45522;SDS011;31254;51.680;5.394;2022-08-03T04:29:05;11.07;;;4.05;;
45522;SDS011;31254;51.680;5.394;2022-08-03T04:31:34;10.88;;;4.00;;
45522;SDS011;31254;51.680;5.394;2022-08-03T04:34:03;16.40;;;4.10;;
45522;SDS011;31254;51.680;5.394;2022-08-03T04:36:30;7.32;;;3.95;;
45522;SDS011;31254;51.680;5.394;2022-08-03T04:41:27;9.65;;;3.97;;
45522;SDS011;31254;51.680;5.394;2022-08-03T04:43:57;12.13;;;4.13;;
45522;SDS011;31254;51.680;5.394;2022-08-03T04:46:28;12.00;;;3.97;;
45522;SDS011;31254;51.680;5.394;2022-08-03T04:49:00;9.88;;;4.43;;
45522;SDS011;31254;51.680;5.394;2022-08-03T04:51:29;10.90;;;4.30;;
45522;SDS011;31254;51.680;5.394;2022-08-03T04:53:56;9.77;;;4.00;;
45522;SDS011;31254;51.680;5.394;2022-08-03T04:56:24;11.43;;;3.50;;
45522;SDS011;31254;51.680;5.394;2022-08-03T04:58:51;13.32;;;4.10;;
45522;SDS011;31254;51.680;5.394;2022-08-03T05:01:18;11.57;;;3.72;;
45522;SDS011;31254;51.680;5.394;2022-08-03T05:03:46;9.73;;;4.18;;
45522;SDS011;31254;51.680;5.394;2022-08-03T05:06:12;11.02;;;4.32;;
45522;SDS011;31254;51.680;5.394;2022-08-03T05:08:41;9.63;;;3.22;;
45522;SDS011;31254;51.680;5.394;2022-08-03T05:11:14;12.02;;;3.65;;
45522;SDS011;31254;51.680;5.394;2022-08-03T05:13:42;10.95;;;3.30;;
45522;SDS011;31254;51.680;5.394;2022-08-03T05:16:09;7.93;;;2.92;;
45522;SDS011;31254;51.680;5.394;2022-08-03T05:18:37;8.57;;;3.10;;
45522;SDS011;31254;51.680;5.394;2022-08-03T05:21:03;13.82;;;3.30;;
45522;SDS011;31254;51.680;5.394;2022-08-03T05:23:30;10.27;;;2.78;;
45522;SDS011;31254;51.680;5.394;2022-08-03T05:25:57;9.05;;;2.90;;
45522;SDS011;31254;51.680;5.394;2022-08-03T05:28:23;13.25;;;2.72;;
45522;SDS011;31254;51.680;5.394;2022-08-03T05:30:52;10.07;;;3.00;;
45522;SDS011;31254;51.680;5.394;2022-08-03T05:33:19;9.50;;;2.55;;
45522;SDS011;31254;51.680;5.394;2022-08-03T05:35:45;12.80;;;2.65;;
45522;SDS011;31254;51.680;5.394;2022-08-03T05:38:29;10.32;;;2.30;;
45522;SDS011;31254;51.680;5.394;2022-08-03T05:41:00;9.77;;;1.90;;
45522;SDS011;31254;51.680;5.394;2022-08-03T05:43:47;11.80;;;3.05;;
45522;SDS011;31254;51.680;5.394;2022-08-03T05:46:14;8.23;;;2.10;;
45522;SDS011;31254;51.680;5.394;2022-08-03T05:48:43;10.32;;;1.88;;
45522;SDS011;31254;51.680;5.394;2022-08-03T05:51:10;8.10;;;1.85;;
45522;SDS011;31254;51.680;5.394;2022-08-03T05:53:41;15.52;;;2.28;;
45522;SDS011;31254;51.680;5.394;2022-08-03T05:56:09;11.10;;;2.58;;
45522;SDS011;31254;51.680;5.394;2022-08-03T05:58:41;15.35;;;1.92;;
45522;SDS011;31254;51.680;5.394;2022-08-03T06:01:14;10.38;;;2.65;;
45522;SDS011;31254;51.680;5.394;2022-08-03T06:03:42;13.02;;;2.25;;
45522;SDS011;31254;51.680;5.394;2022-08-03T06:06:10;7.82;;;1.73;;
45522;SDS011;31254;51.680;5.394;2022-08-03T06:08:39;6.57;;;2.05;;
45522;SDS011;31254;51.680;5.394;2022-08-03T06:11:07;11.20;;;1.83;;
45522;SDS011;31254;51.680;5.394;2022-08-03T06:13:36;13.25;;;2.45;;
45522;SDS011;31254;51.680;5.394;2022-08-03T06:16:06;7.75;;;2.00;;
45522;SDS011;31254;51.680;5.394;2022-08-03T06:18:33;8.45;;;1.77;;
45522;SDS011;31254;51.680;5.394;2022-08-03T06:21:00;10.55;;;2.35;;
45522;SDS011;31254;51.680;5.394;2022-08-03T06:23:41;12.35;;;2.05;;
45522;SDS011;31254;51.680;5.394;2022-08-03T06:26:18;12.05;;;2.17;;
45522;SDS011;31254;51.680;5.394;2022-08-03T06:28:45;11.80;;;2.00;;
45522;SDS011;31254;51.680;5.394;2022-08-03T06:31:20;14.07;;;2.53;;
45522;SDS011;31254;51.680;5.394;2022-08-03T06:33:58;12.63;;;2.20;;
45522;SDS011;31254;51.680;5.394;2022-08-03T06:36:47;9.68;;;1.85;;
45522;SDS011;31254;51.680;5.394;2022-08-03T06:39:17;12.95;;;2.47;;
45522;SDS011;31254;51.680;5.394;2022-08-03T06:41:44;9.80;;;2.00;;
45522;SDS011;31254;51.680;5.394;2022-08-03T06:44:11;7.13;;;2.00;;
45522;SDS011;31254;51.680;5.394;2022-08-03T06:46:38;12.50;;;2.03;;
45522;SDS011;31254;51.680;5.394;2022-08-03T06:49:05;15.07;;;2.22;;
45522;SDS011;31254;51.680;5.394;2022-08-03T06:51:35;11.13;;;2.13;;
45522;SDS011;31254;51.680;5.394;2022-08-03T06:54:21;10.77;;;2.53;;
45522;SDS011;31254;51.680;5.394;2022-08-03T06:56:49;8.57;;;1.92;;
45522;SDS011;31254;51.680;5.394;2022-08-03T06:59:16;11.48;;;2.25;;
45522;SDS011;31254;51.680;5.394;2022-08-03T07:02:05;9.05;;;1.88;;
45522;SDS011;31254;51.680;5.394;2022-08-03T07:04:34;14.10;;;2.25;;
45522;SDS011;31254;51.680;5.394;2022-08-03T07:07:00;10.63;;;2.60;;
45522;SDS011;31254;51.680;5.394;2022-08-03T07:09:27;13.85;;;2.10;;
45522;SDS011;31254;51.680;5.394;2022-08-03T07:11:54;15.30;;;2.28;;
45522;SDS011;31254;51.680;5.394;2022-08-03T07:14:20;10.98;;;2.05;;
45522;SDS011;31254;51.680;5.394;2022-08-03T07:16:47;13.43;;;1.88;;
45522;SDS011;31254;51.680;5.394;2022-08-03T07:19:16;12.57;;;2.03;;
45522;SDS011;31254;51.680;5.394;2022-08-03T07:21:42;14.32;;;2.65;;
45522;SDS011;31254;51.680;5.394;2022-08-03T07:24:12;8.15;;;1.92;;
45522;SDS011;31254;51.680;5.394;2022-08-03T07:26:38;12.77;;;2.50;;
45522;SDS011;31254;51.680;5.394;2022-08-03T07:29:05;10.40;;;2.00;;
45522;SDS011;31254;51.680;5.394;2022-08-03T07:31:40;17.90;;;2.83;;
45522;SDS011;31254;51.680;5.394;2022-08-03T07:34:07;10.15;;;1.90;;
45522;SDS011;31254;51.680;5.394;2022-08-03T07:36:33;15.93;;;2.45;;
45522;SDS011;31254;51.680;5.394;2022-08-03T07:39:00;13.50;;;1.90;;
45522;SDS011;31254;51.680;5.394;2022-08-03T07:41:41;13.45;;;2.58;;
45522;SDS011;31254;51.680;5.394;2022-08-03T07:44:08;15.10;;;2.88;;
45522;SDS011;31254;51.680;5.394;2022-08-03T07:46:40;18.10;;;2.20;;
45522;SDS011;31254;51.680;5.394;2022-08-03T07:49:09;13.65;;;1.90;;
45522;SDS011;31254;51.680;5.394;2022-08-03T07:51:36;11.02;;;2.40;;
45522;SDS011;31254;51.680;5.394;2022-08-03T07:54:03;11.93;;;1.60;;
45522;SDS011;31254;51.680;5.394;2022-08-03T07:56:33;13.98;;;1.80;;
45522;SDS011;31254;51.680;5.394;2022-08-03T07:58:59;15.70;;;1.88;;
45522;SDS011;31254;51.680;5.394;2022-08-03T08:01:27;12.70;;;2.13;;
45522;SDS011;31254;51.680;5.394;2022-08-03T08:03:55;12.90;;;2.13;;
45522;SDS011;31254;51.680;5.394;2022-08-03T08:06:24;16.58;;;2.20;;
45522;SDS011;31254;51.680;5.394;2022-08-03T08:08:51;14.52;;;2.40;;
45522;SDS011;31254;51.680;5.394;2022-08-03T08:11:18;8.65;;;2.03;;
45522;SDS011;31254;51.680;5.394;2022-08-03T08:13:47;11.23;;;1.92;;
45522;SDS011;31254;51.680;5.394;2022-08-03T08:16:14;14.63;;;2.10;;
45522;SDS011;31254;51.680;5.394;2022-08-03T08:18:40;13.70;;;1.80;;
45522;SDS011;31254;51.680;5.394;2022-08-03T08:21:09;12.52;;;1.98;;
45522;SDS011;31254;51.680;5.394;2022-08-03T08:23:36;12.80;;;1.80;;
45522;SDS011;31254;51.680;5.394;2022-08-03T08:26:09;15.73;;;2.30;;
45522;SDS011;31254;51.680;5.394;2022-08-03T08:28:36;13.82;;;2.28;;
45522;SDS011;31254;51.680;5.394;2022-08-03T08:31:03;12.50;;;1.58;;
45522;SDS011;31254;51.680;5.394;2022-08-03T08:33:30;11.10;;;1.88;;
45522;SDS011;31254;51.680;5.394;2022-08-03T08:36:17;14.60;;;2.20;;
45522;SDS011;31254;51.680;5.394;2022-08-03T08:38:44;13.63;;;2.22;;
45522;SDS011;31254;51.680;5.394;2022-08-03T08:41:11;12.70;;;2.30;;
45522;SDS011;31254;51.680;5.394;2022-08-03T08:43:39;14.40;;;2.30;;
45522;SDS011;31254;51.680;5.394;2022-08-03T08:46:07;10.45;;;1.88;;
45522;SDS011;31254;51.680;5.394;2022-08-03T08:48:49;14.65;;;2.22;;
45522;SDS011;31254;51.680;5.394;2022-08-03T08:51:17;12.98;;;1.90;;
45522;SDS011;31254;51.680;5.394;2022-08-03T08:53:46;13.45;;;1.92;;
45522;SDS011;31254;51.680;5.394;2022-08-03T08:56:17;14.80;;;2.53;;
45522;SDS011;31254;51.680;5.394;2022-08-03T08:58:50;9.45;;;1.88;;
45522;SDS011;31254;51.680;5.394;2022-08-03T09:01:18;19.85;;;2.28;;
45522;SDS011;31254;51.680;5.394;2022-08-03T09:03:47;10.73;;;2.10;;
45522;SDS011;31254;51.680;5.394;2022-08-03T09:06:15;14.40;;;1.88;;
45522;SDS011;31254;51.680;5.394;2022-08-03T09:08:42;12.60;;;1.92;;
45522;SDS011;31254;51.680;5.394;2022-08-03T09:11:11;12.68;;;2.35;;
45522;SDS011;31254;51.680;5.394;2022-08-03T09:13:38;13.05;;;2.80;;
45522;SDS011;31254;51.680;5.394;2022-08-03T09:16:17;18.10;;;2.53;;
45522;SDS011;31254;51.680;5.394;2022-08-03T09:18:47;17.60;;;2.17;;
45522;SDS011;31254;51.680;5.394;2022-08-03T09:21:26;17.20;;;2.13;;
45522;SDS011;31254;51.680;5.394;2022-08-03T09:24:00;15.38;;;2.30;;
45522;SDS011;31254;51.680;5.394;2022-08-03T09:26:31;13.85;;;2.08;;
45522;SDS011;31254;51.680;5.394;2022-08-03T09:29:08;12.45;;;2.25;;
45522;SDS011;31254;51.680;5.394;2022-08-03T09:31:46;17.20;;;2.10;;
45522;SDS011;31254;51.680;5.394;2022-08-03T09:34:13;19.45;;;2.58;;
45522;SDS011;31254;51.680;5.394;2022-08-03T09:36:50;11.13;;;2.05;;
45522;SDS011;31254;51.680;5.394;2022-08-03T09:39:23;13.68;;;2.10;;
45522;SDS011;31254;51.680;5.394;2022-08-03T09:44:39;17.45;;;2.75;;
45522;SDS011;31254;51.680;5.394;2022-08-03T09:47:10;21.02;;;2.15;;
45522;SDS011;31254;51.680;5.394;2022-08-03T09:49:42;25.80;;;2.85;;
45522;SDS011;31254;51.680;5.394;2022-08-03T09:52:28;15.43;;;2.40;;
45522;SDS011;31254;51.680;5.394;2022-08-03T09:55:19;12.88;;;2.40;;
45522;SDS011;31254;51.680;5.394;2022-08-03T09:58:06;12.55;;;1.77;;
45522;SDS011;31254;51.680;5.394;2022-08-03T10:03:21;12.90;;;1.90;;
45522;SDS011;31254;51.680;5.394;2022-08-03T10:05:48;10.50;;;2.55;;
45522;SDS011;31254;51.680;5.394;2022-08-03T10:08:15;14.25;;;2.03;;
45522;SDS011;31254;51.680;5.394;2022-08-03T10:10:45;10.70;;;2.03;;
45522;SDS011;31254;51.680;5.394;2022-08-03T10:13:17;13.82;;;2.30;;
45522;SDS011;31254;51.680;5.394;2022-08-03T10:15:44;16.00;;;2.10;;
45522;SDS011;31254;51.680;5.394;2022-08-03T10:18:34;13.32;;;2.40;;
45522;SDS011;31254;51.680;5.394;2022-08-03T10:21:03;11.23;;;2.00;;
45522;SDS011;31254;51.680;5.394;2022-08-03T10:23:36;19.58;;;2.28;;
45522;SDS011;31254;51.680;5.394;2022-08-03T10:26:06;14.05;;;2.33;;
45522;SDS011;31254;51.680;5.394;2022-08-03T10:28:34;10.38;;;1.92;;
45522;SDS011;31254;51.680;5.394;2022-08-03T10:31:10;11.23;;;1.77;;
45522;SDS011;31254;51.680;5.394;2022-08-03T10:33:42;12.23;;;1.60;;
45522;SDS011;31254;51.680;5.394;2022-08-03T10:36:17;8.90;;;1.95;;
45522;SDS011;31254;51.680;5.394;2022-08-03T10:38:48;9.60;;;1.95;;
45522;SDS011;31254;51.680;5.394;2022-08-03T10:41:20;12.55;;;1.70;;
45522;SDS011;31254;51.680;5.394;2022-08-03T10:44:01;16.23;;;2.25;;
45522;SDS011;31254;51.680;5.394;2022-08-03T10:46:30;20.92;;;2.35;;
45522;SDS011;31254;51.680;5.394;2022-08-03T10:48:59;12.63;;;1.80;;
45522;SDS011;31254;51.680;5.394;2022-08-03T10:51:27;14.02;;;2.15;;
45522;SDS011;31254;51.680;5.394;2022-08-03T10:53:58;10.60;;;2.22;;
45522;SDS011;31254;51.680;5.394;2022-08-03T11:00:02;13.93;;;1.70;;
45522;SDS011;31254;51.680;5.394;2022-08-03T11:02:12;12.55;;;2.28;;
45522;SDS011;31254;51.680;5.394;2022-08-03T11:04:43;17.45;;;2.38;;
45522;SDS011;31254;51.680;5.394;2022-08-03T11:09:52;17.15;;;2.72;;
45522;SDS011;31254;51.680;5.394;2022-08-03T11:14:56;9.85;;;1.95;;
45522;SDS011;31254;51.680;5.394;2022-08-03T11:17:33;10.52;;;2.05;;
45522;SDS011;31254;51.680;5.394;2022-08-03T11:21:03;15.25;;;2.33;;
45522;SDS011;31254;51.680;5.394;2022-08-03T11:23:18;14.10;;;2.33;;
45522;SDS011;31254;51.680;5.394;2022-08-03T11:26:30;14.10;;;2.42;;
45522;SDS011;31254;51.680;5.394;2022-08-03T11:32:01;8.95;;;1.92;;
45522;SDS011;31254;51.680;5.394;2022-08-03T11:34:30;12.30;;;1.88;;
45522;SDS011;31254;51.680;5.394;2022-08-03T11:39:53;9.45;;;1.48;;
45522;SDS011;31254;51.680;5.394;2022-08-03T11:44:49;15.43;;;2.15;;
45522;SDS011;31254;51.680;5.394;2022-08-03T11:47:20;11.75;;;1.50;;
45522;SDS011;31254;51.680;5.394;2022-08-03T11:49:49;15.65;;;2.08;;
45522;SDS011;31254;51.680;5.394;2022-08-03T11:52:17;15.82;;;2.03;;
45522;SDS011;31254;51.680;5.394;2022-08-03T11:54:52;10.43;;;1.60;;
45522;SDS011;31254;51.680;5.394;2022-08-03T11:57:29;12.23;;;1.92;;
45522;SDS011;31254;51.680;5.394;2022-08-03T12:03:07;10.82;;;1.70;;
45522;SDS011;31254;51.680;5.394;2022-08-03T12:08:39;8.15;;;1.42;;
45522;SDS011;31254;51.680;5.394;2022-08-03T12:11:05;10.10;;;1.75;;
45522;SDS011;31254;51.680;5.394;2022-08-03T12:13:38;11.80;;;1.70;;
45522;SDS011;31254;51.680;5.394;2022-08-03T12:16:33;10.27;;;1.50;;
45522;SDS011;31254;51.680;5.394;2022-08-03T12:19:00;7.53;;;1.45;;
45522;SDS011;31254;51.680;5.394;2022-08-03T12:21:29;8.88;;;1.55;;
45522;SDS011;31254;51.680;5.394;2022-08-03T12:23:59;7.68;;;1.52;;
45522;SDS011;31254;51.680;5.394;2022-08-03T12:26:28;9.40;;;1.65;;
45522;SDS011;31254;51.680;5.394;2022-08-03T12:28:58;9.82;;;1.77;;
45522;SDS011;31254;51.680;5.394;2022-08-03T12:31:24;8.32;;;1.48;;
45522;SDS011;31254;51.680;5.394;2022-08-03T12:33:55;10.88;;;1.70;;
45522;SDS011;31254;51.680;5.394;2022-08-03T12:36:35;9.98;;;1.65;;
45522;SDS011;31254;51.680;5.394;2022-08-03T12:39:04;6.90;;;1.15;;
45522;SDS011;31254;51.680;5.394;2022-08-03T12:41:33;5.20;;;1.25;;
45522;SDS011;31254;51.680;5.394;2022-08-03T12:44:04;9.65;;;1.60;;
45522;SDS011;31254;51.680;5.394;2022-08-03T12:46:37;8.15;;;1.20;;
45522;SDS011;31254;51.680;5.394;2022-08-03T12:49:14;12.60;;;1.70;;
45522;SDS011;31254;51.680;5.394;2022-08-03T12:54:26;9.00;;;1.60;;
45522;SDS011;31254;51.680;5.394;2022-08-03T12:57:04;10.77;;;1.80;;
45522;SDS011;31254;51.680;5.394;2022-08-03T12:59:41;9.15;;;1.52;;
45522;SDS011;31254;51.680;5.394;2022-08-03T13:04:50;9.18;;;1.85;;
45522;SDS011;31254;51.680;5.394;2022-08-03T13:07:18;5.20;;;1.58;;
45522;SDS011;31254;51.680;5.394;2022-08-03T13:09:47;10.25;;;1.52;;
45522;SDS011;31254;51.680;5.394;2022-08-03T13:12:25;8.85;;;1.60;;
45522;SDS011;31254;51.680;5.394;2022-08-03T13:14:59;9.60;;;1.80;;
45522;SDS011;31254;51.680;5.394;2022-08-03T13:17:26;4.13;;;1.20;;
45522;SDS011;31254;51.680;5.394;2022-08-03T13:19:53;5.07;;;1.80;;
45522;SDS011;31254;51.680;5.394;2022-08-03T13:22:22;9.38;;;1.50;;
45522;SDS011;31254;51.680;5.394;2022-08-03T13:24:50;11.82;;;1.52;;
45522;SDS011;31254;51.680;5.394;2022-08-03T13:27:18;12.23;;;1.70;;
45522;SDS011;31254;51.680;5.394;2022-08-03T13:30:06;8.20;;;1.67;;
45522;SDS011;31254;51.680;5.394;2022-08-03T13:32:34;8.30;;;1.38;;
45522;SDS011;31254;51.680;5.394;2022-08-03T13:35:03;8.90;;;1.55;;
45522;SDS011;31254;51.680;5.394;2022-08-03T13:37:30;8.70;;;1.38;;
45522;SDS011;31254;51.680;5.394;2022-08-03T13:39:58;12.18;;;1.60;;
45522;SDS011;31254;51.680;5.394;2022-08-03T13:42:28;7.30;;;1.55;;
45522;SDS011;31254;51.680;5.394;2022-08-03T13:44:59;9.13;;;1.60;;
45522;SDS011;31254;51.680;5.394;2022-08-03T13:47:26;9.48;;;1.80;;
45522;SDS011;31254;51.680;5.394;2022-08-03T13:49:53;11.32;;;2.08;;
45522;SDS011;31254;51.680;5.394;2022-08-03T13:52:34;9.77;;;1.80;;
45522;SDS011;31254;51.680;5.394;2022-08-03T13:55:02;4.97;;;1.38;;
45522;SDS011;31254;51.680;5.394;2022-08-03T13:57:30;8.70;;;1.80;;
45522;SDS011;31254;51.680;5.394;2022-08-03T14:00:17;15.38;;;1.85;;
45522;SDS011;31254;51.680;5.394;2022-08-03T14:02:53;13.27;;;1.45;;
45522;SDS011;31254;51.680;5.394;2022-08-03T14:05:28;9.88;;;1.55;;
45522;SDS011;31254;51.680;5.394;2022-08-03T14:07:57;4.50;;;1.58;;
45522;SDS011;31254;51.680;5.394;2022-08-03T14:10:30;11.57;;;2.22;;
45522;SDS011;31254;51.680;5.394;2022-08-03T14:13:07;8.32;;;1.50;;
45522;SDS011;31254;51.680;5.394;2022-08-03T14:15:36;5.45;;;1.40;;
45522;SDS011;31254;51.680;5.394;2022-08-03T14:18:05;5.78;;;1.67;;
45522;SDS011;31254;51.680;5.394;2022-08-03T14:20:41;6.55;;;1.15;;
45522;SDS011;31254;51.680;5.394;2022-08-03T14:23:16;6.90;;;1.45;;
45522;SDS011;31254;51.680;5.394;2022-08-03T14:25:43;9.98;;;1.30;;
45522;SDS011;31254;51.680;5.394;2022-08-03T14:28:19;5.13;;;1.35;;
45522;SDS011;31254;51.680;5.394;2022-08-03T14:30:47;4.53;;;1.10;;
45522;SDS011;31254;51.680;5.394;2022-08-03T14:33:14;10.95;;;1.52;;
45522;SDS011;31254;51.680;5.394;2022-08-03T14:35:41;6.32;;;1.42;;
45522;SDS011;31254;51.680;5.394;2022-08-03T14:38:08;5.60;;;1.30;;
45522;SDS011;31254;51.680;5.394;2022-08-03T14:40:35;9.32;;;1.45;;
45522;SDS011;31254;51.680;5.394;2022-08-03T14:43:01;8.05;;;1.23;;
45522;SDS011;31254;51.680;5.394;2022-08-03T14:45:30;10.77;;;1.98;;
45522;SDS011;31254;51.680;5.394;2022-08-03T14:47:57;4.75;;;1.02;;
45522;SDS011;31254;51.680;5.394;2022-08-03T14:50:46;4.47;;;1.23;;
45522;SDS011;31254;51.680;5.394;2022-08-03T14:53:17;10.18;;;1.77;;
45522;SDS011;31254;51.680;5.394;2022-08-03T14:55:45;6.50;;;1.45;;
45522;SDS011;31254;51.680;5.394;2022-08-03T14:58:16;6.80;;;1.30;;
45522;SDS011;31254;51.680;5.394;2022-08-03T15:00:51;10.50;;;1.30;;
45522;SDS011;31254;51.680;5.394;2022-08-03T15:03:18;6.03;;;1.20;;
45522;SDS011;31254;51.680;5.394;2022-08-03T15:05:50;7.03;;;1.45;;
45522;SDS011;31254;51.680;5.394;2022-08-03T15:08:18;14.63;;;1.70;;
45522;SDS011;31254;51.680;5.394;2022-08-03T15:10:45;5.28;;;1.48;;
45522;SDS011;31254;51.680;5.394;2022-08-03T15:13:14;6.22;;;1.40;;
45522;SDS011;31254;51.680;5.394;2022-08-03T15:15:41;8.50;;;1.30;;
45522;SDS011;31254;51.680;5.394;2022-08-03T15:18:08;4.72;;;1.10;;
45522;SDS011;31254;51.680;5.394;2022-08-03T15:20:35;7.00;;;1.20;;
45522;SDS011;31254;51.680;5.394;2022-08-03T15:23:11;8.27;;;1.35;;
45522;SDS011;31254;51.680;5.394;2022-08-03T15:25:38;11.63;;;1.60;;
45522;SDS011;31254;51.680;5.394;2022-08-03T15:28:25;7.93;;;1.67;;
45522;SDS011;31254;51.680;5.394;2022-08-03T15:30:53;7.65;;;1.38;;
45522;SDS011;31254;51.680;5.394;2022-08-03T15:33:20;6.07;;;1.60;;
45522;SDS011;31254;51.680;5.394;2022-08-03T15:35:47;7.30;;;1.50;;
45522;SDS011;31254;51.680;5.394;2022-08-03T15:38:14;4.47;;;1.27;;
45522;SDS011;31254;51.680;5.394;2022-08-03T15:40:41;5.82;;;1.45;;
45522;SDS011;31254;51.680;5.394;2022-08-03T15:43:08;7.15;;;1.27;;
45522;SDS011;31254;51.680;5.394;2022-08-03T15:45:35;9.00;;;1.27;;
45522;SDS011;31254;51.680;5.394;2022-08-03T15:48:05;6.38;;;1.45;;
45522;SDS011;31254;51.680;5.394;2022-08-03T15:50:31;7.93;;;1.50;;